Pagrindinis puslapis
METAR-TAF:

METAR-TAF

Oro uostai :

Kordoba, Argentina

platuma: 31-19S, ilguma: 064-13W, Aukštis: 484 m

Dabartinis oras

Ataskaita buvo paskelbta 13 minutes, ne 12:00 UTC
Vėjas 4 kt iš Šiaurės Vakarų
Temperatūra 11°C
Drėgmė 50%
Slėgis 1017 hPa
Matomumas: 8000 m

METAR: SACO 171200Z 32004KT 8000 NSC 11/01 Q1017 NOSIG

Laikas: 09:13 (12:13 UTC)

Prognozė

Ataskaita buvo paskelbta 1 valandą ir 13 minutes, ne 11:00 UTC
Prognozė galioja nuo 17 metu 12 UTC su 18 metu 12 UTC
Vėjas 5 kt iš Šiaurės Vakarų
Matomumas 10 km arba daugiau
nėra debesų žemiau 1500 m ir nėra kamuolinių lietaus debesų
Tapsmas
nuo 17 metu 16 UTC su 17 metu 18 UTC
Vėjas 10 kt iš Vakarų/Šiaurės Vakarų
Tapsmas
nuo 18 metu 00 UTC su 18 metu 03 UTC
Vėjas 3 kt nuo kintamojo kryptimis
Tapsmas
nuo 18 metu 03 UTC su 18 metu 06 UTC
Vėjas 10 kt iš Vakarų

TAF: SACO 171100Z 1712/1812 32005KT CAVOK TX21/1718Z TN10/1810Z BECMG 1716/1718 29010KT BECMG 1800/1803 VRB03KT BECMG 1803/1806 27010KT

Orai ataskaitas ir orų prognozės (METAR, TAF).

turimą stotys yra geltonos ir raudonos taškus žemėlapyje.

Perkelti pele per norėdami pamatyti stoties vardą.

Tada spustelėkite, norėdami matyti oro stebėjimo ir prognozės.

Norėdami pakeisti žemėlapį: spustelėkite ant žalios mygtukų su juodo kryžiaus žemyn,; žalią mygtuką su brūkšneliu, jei norite nutolinti; arba žalių rodyklių gretimoms žemėlapius.


METAR-TAF: